Reportes METAR Cercanos

 

LEMD - Madrid/Barajas, Spain
Distance from station: N 10km
Updated: 18/01/2019 10:30
Despejado
Despejado
 Viento del calm
Viento: Calma
Temperatura: 1°C
Rocío: -2°C
Humedad: 81%
Barómetro: 1021 hPa
Resumen: Despejado
Visibility: greater than 10 km
2019/01/18 10:30 LEMD 181030Z 00000KT CAVOK 01/M02 Q1021 NOSIG
LETO - Torrejon (usafb), Spain
Distance from station: NNE 13km
Updated: 18/01/2019 10:00
Despejado
Despejado
 Viento del calm
Viento: Calma
Temperatura: 0°C
Rocío: -2°C
Humedad: 87%
Barómetro: 1021 hPa
Resumen: Despejado
Visibility: greater than 10 km
2019/01/18 10:00 LETO 181000Z 00000KT CAVOK 00/M02 Q1021 NOSIG
 
LEGT - Madrid/Getafe (a, Spain
Distance from station: OSO 18km
Updated: 18/01/2019 10:00
Despejado
Despejado
 Viento del calm
Viento: Calma
Temperatura: 2°C
Rocío: -1°C
Humedad: 81%
Barómetro: 1021 hPa
Resumen: Despejado
Visibility: greater than 10 km
2019/01/18 10:00 LEGT 181000Z 00000KT CAVOK 02/M01 Q1021
LEVS - Madrid/Cuatro Vi, Spain
Distance from station: O 20km
Updated: 18/01/2019 10:30
Despejado
Despejado
 Viento del varies
Viento: varies 4 km/h
Temperatura: 3°C
Rocío: -1°C
Humedad: 75%
Barómetro: 1020 hPa
Resumen: Despejado
Visibility: greater than 10 km
2019/01/18 10:30 LEVS 181030Z VRB02KT CAVOK 03/M01 Q1020
 
LECV - Madri-Colmenar, Spain
Distance from station: NNO 34km
Updated: 18/01/2019 10:00
Despejado
Despejado
 Viento del varies
Viento: varies 4 km/h
Temperatura: 2°C
Rocío: -2°C
Humedad: 75%
Barómetro: 1019 hPa
Resumen: Despejado
Visibility: greater than 10 km
2019/01/18 10:00 LECV 181000Z VRB02KT CAVOK 02/M02 Q1019